Voerendaal, Netherlands
Current Conditions -  °F | °C
As of 1:25 PM on Monday 24 Nov 2014 (Local Time) from EHBK Reporting Station
Broken Clouds Broken Clouds  
Wind Chill: 50°   Ceiling: 2200
Heat Index: 50°   Visibility: 6mi
Dew Point: 41°   Wind: 2mph
Humidity: 71%   Direction: NA
Pressure: 30.27"   Gusts: NA
Location:  50.88°N, 5.93°E
Report Text: EHBK 241225Z AUTO VRB02KT 9999 BKN022 10/05 Q1025 NOSIG
Loading
Personal Weather Stations






























Interactive Weather Map New forecast layout! Learn more

10-Day Weather Forecast

Advertisements
Track Severe Weather on mobile